createdAt,value
2019-03-29T00:01:26.751Z,49.15
2019-03-29T00:03:57.798Z,62.25
2019-03-29T00:06:29.049Z,49.00
2019-03-29T00:09:01.964Z,51.63
2019-03-29T00:11:35.282Z,60.17
2019-03-29T00:14:10.129Z,51.05
2019-03-29T00:16:41.294Z,56.45
2019-03-29T00:19:12.466Z,61.25
2019-03-29T00:21:44.960Z,52.23
2019-03-29T00:24:16.090Z,54.73
2019-03-29T00:26:47.544Z,50.60
2019-03-29T00:29:19.055Z,48.63
2019-03-29T00:31:50.252Z,54.08
2019-03-29T00:34:21.495Z,46.95
2019-03-29T00:36:52.739Z,48.95
2019-03-29T00:39:25.505Z,50.88
2019-03-29T00:41:56.708Z,51.40
2019-03-29T00:44:28.820Z,56.90
2019-03-29T00:47:00.114Z,53.05
2019-03-29T00:49:31.296Z,52.20
2019-03-29T00:52:02.401Z,67.10
2019-03-29T00:54:33.497Z,62.58
2019-03-29T00:57:05.016Z,60.00
2019-03-29T00:59:36.358Z,69.10
2019-03-29T01:02:07.454Z,60.12
2019-03-29T01:04:38.737Z,64.50
2019-03-29T01:07:09.834Z,67.80
2019-03-29T01:09:41.050Z,63.92
2019-03-29T01:12:12.103Z,63.85
2019-03-29T01:14:43.303Z,59.25
2019-03-29T01:17:14.417Z,61.37
2019-03-29T01:19:45.626Z,64.22
2019-03-29T01:22:16.795Z,59.40
2019-03-29T01:24:47.998Z,54.93
2019-03-29T01:27:19.445Z,56.98
2019-03-29T01:29:51.576Z,54.27
2019-03-29T01:32:22.741Z,58.98
2019-03-29T01:34:53.931Z,49.60
2019-03-29T01:37:24.990Z,52.10
2019-03-29T01:39:57.241Z,46.77
2019-03-29T01:42:28.263Z,52.30
2019-03-29T01:45:00.392Z,55.83
2019-03-29T01:47:31.511Z,63.63
2019-03-29T01:50:02.944Z,80.38
2019-03-29T01:52:34.056Z,72.75
2019-03-29T01:55:08.281Z,73.33
2019-03-29T01:57:39.513Z,72.90
2019-03-29T02:00:10.735Z,78.22
2019-03-29T02:02:41.975Z,78.33
2019-03-29T02:05:13.013Z,65.08
2019-03-29T02:07:44.147Z,56.25
2019-03-29T02:10:15.454Z,66.72
2019-03-29T02:12:46.582Z,62.93
2019-03-29T02:15:17.709Z,69.90
2019-03-29T02:17:48.954Z,60.12
2019-03-29T02:20:20.039Z,60.55
2019-03-29T02:22:51.153Z,67.05
2019-03-29T02:25:22.359Z,60.88
2019-03-29T02:27:53.471Z,61.80
2019-03-29T02:30:24.728Z,66.30
2019-03-29T02:32:56.031Z,60.50
2019-03-29T02:35:27.025Z,65.75
2019-03-29T02:37:58.244Z,62.65
2019-03-29T02:40:29.340Z,61.02
2019-03-29T02:43:00.385Z,60.80
2019-03-29T02:45:31.474Z,54.23
2019-03-29T02:48:04.143Z,53.92
2019-03-29T02:50:36.652Z,55.23
2019-03-29T02:53:09.030Z,60.03
2019-03-29T02:55:40.122Z,54.98
2019-03-29T02:58:11.478Z,65.70
2019-03-29T03:00:42.579Z,66.30
2019-03-29T03:03:13.667Z,52.10
2019-03-29T03:05:44.834Z,56.02
2019-03-29T03:08:15.952Z,58.05
2019-03-29T03:10:47.149Z,60.98
2019-03-29T03:13:18.298Z,52.00
2019-03-29T03:15:50.848Z,52.30
2019-03-29T03:18:21.940Z,55.78
2019-03-29T03:20:52.985Z,49.33
2019-03-29T03:23:24.112Z,57.33
2019-03-29T03:25:55.240Z,65.90
2019-03-29T03:28:26.487Z,69.53
2019-03-29T03:30:57.654Z,64.27
2019-03-29T03:33:29.826Z,69.77
2019-03-29T03:36:02.173Z,77.62
2019-03-29T03:38:33.239Z,75.52
2019-03-29T03:41:04.287Z,82.65
2019-03-29T03:43:35.449Z,86.75
2019-03-29T03:46:07.734Z,85.97
2019-03-29T03:48:40.044Z,94.70
2019-03-29T03:51:11.098Z,100.45
2019-03-29T03:53:42.562Z,88.17
2019-03-29T03:56:15.169Z,88.12
2019-03-29T03:58:46.234Z,86.47
2019-03-29T04:01:17.338Z,84.85
2019-03-29T04:03:49.300Z,80.65
2019-03-29T04:06:20.365Z,81.32
2019-03-29T04:08:51.549Z,85.77
2019-03-29T04:11:22.631Z,83.82
2019-03-29T04:13:53.884Z,78.37
2019-03-29T04:16:25.127Z,74.75
2019-03-29T04:18:56.169Z,74.70
2019-03-29T04:21:27.253Z,80.38
2019-03-29T04:23:58.374Z,76.70
2019-03-29T04:26:29.710Z,70.03
2019-03-29T04:29:04.606Z,62.58
2019-03-29T04:31:33.623Z,61.23
2019-03-29T04:34:04.702Z,52.98
2019-03-29T04:36:36.008Z,48.60
2019-03-29T04:39:07.217Z,53.33
2019-03-29T04:41:38.494Z,51.10
2019-03-29T04:44:09.560Z,41.08
2019-03-29T04:46:40.920Z,39.67
2019-03-29T04:49:12.287Z,45.52
2019-03-29T04:51:43.400Z,39.80
2019-03-29T04:54:14.366Z,41.25
2019-03-29T04:56:45.493Z,35.65
2019-03-29T04:59:16.546Z,41.48
2019-03-29T05:01:47.673Z,46.28
2019-03-29T05:04:18.821Z,42.13
2019-03-29T05:06:49.921Z,44.83
2019-03-29T05:09:22.756Z,41.77
2019-03-29T05:11:53.890Z,46.85
2019-03-29T05:14:24.941Z,39.23
2019-03-29T05:16:56.051Z,38.63
2019-03-29T05:19:27.118Z,43.70
2019-03-29T05:21:58.340Z,37.53
2019-03-29T05:24:29.496Z,32.17
2019-03-29T05:27:00.569Z,39.35
2019-03-29T05:29:33.194Z,39.35
2019-03-29T05:32:04.334Z,33.78
2019-03-29T05:34:36.977Z,33.38
2019-03-29T05:37:08.167Z,29.20
2019-03-29T05:39:39.416Z,27.80
2019-03-29T05:42:10.627Z,34.38
2019-03-29T05:44:42.149Z,22.45
2019-03-29T05:47:13.207Z,28.30
2019-03-29T05:49:44.440Z,25.12
2019-03-29T05:52:15.493Z,28.38
2019-03-29T05:54:46.749Z,26.37
2019-03-29T05:57:19.376Z,26.15
2019-03-29T05:59:50.707Z,26.93
2019-03-29T06:02:21.887Z,22.02
2019-03-29T06:04:53.207Z,28.20
2019-03-29T06:07:24.426Z,27.60
2019-03-29T06:09:55.554Z,28.15
2019-03-29T06:12:27.031Z,21.15
2019-03-29T06:14:58.437Z,19.48
2019-03-29T06:17:29.501Z,21.07
2019-03-29T06:20:00.846Z,25.45
2019-03-29T06:22:31.998Z,22.17
2019-03-29T06:25:03.127Z,22.87
2019-03-29T06:27:34.152Z,26.62
2019-03-29T06:30:06.757Z,21.65
2019-03-29T06:32:37.951Z,19.92
2019-03-29T06:35:09.142Z,20.43
2019-03-29T06:37:43.075Z,24.75
2019-03-29T06:40:20.853Z,18.37
2019-03-29T06:42:52.057Z,22.05
2019-03-29T06:45:23.162Z,20.00
2019-03-29T06:47:54.212Z,21.48
2019-03-29T06:50:25.396Z,26.23
2019-03-29T06:52:56.710Z,21.80
2019-03-29T06:55:27.969Z,20.95
2019-03-29T06:57:59.171Z,19.85
2019-03-29T07:00:30.467Z,22.80
2019-03-29T07:03:01.792Z,17.95
2019-03-29T07:05:33.014Z,19.82
2019-03-29T07:08:04.422Z,20.08
2019-03-29T07:10:35.642Z,25.35
2019-03-29T07:13:06.780Z,21.42
2019-03-29T07:15:37.794Z,20.45
2019-03-29T07:18:12.485Z,20.00
2019-03-29T07:20:44.621Z,18.05
2019-03-29T07:23:15.717Z,21.30
2019-03-29T07:25:46.951Z,23.90
2019-03-29T07:28:20.203Z,20.57
2019-03-29T07:30:51.351Z,21.27
2019-03-29T07:33:22.479Z,16.20
2019-03-29T07:35:53.636Z,21.77
2019-03-29T07:38:24.662Z,23.57
2019-03-29T07:40:55.753Z,26.25
2019-03-29T07:43:26.782Z,20.17
2019-03-29T07:45:57.858Z,23.18
2019-03-29T07:48:29.008Z,23.62
2019-03-29T07:51:00.130Z,21.65
2019-03-29T07:53:31.157Z,22.22
2019-03-29T07:56:02.278Z,20.25
2019-03-29T07:58:35.818Z,18.87
2019-03-29T08:01:08.362Z,18.45
2019-03-29T08:03:39.682Z,20.15
2019-03-29T08:06:11.319Z,19.48
2019-03-29T08:08:43.286Z,18.62
2019-03-29T08:11:25.465Z,18.55
2019-03-29T08:13:47.290Z,23.52
2019-03-29T08:16:18.874Z,24.80
2019-03-29T08:18:49.987Z,21.65
2019-03-29T08:21:21.163Z,21.45
2019-03-29T08:23:52.324Z,18.67
2019-03-29T08:26:23.379Z,20.95
2019-03-29T08:28:54.585Z,17.20
2019-03-29T08:31:25.795Z,16.02
2019-03-29T08:33:56.876Z,17.48
2019-03-29T08:36:27.911Z,14.98
2019-03-29T08:39:00.163Z,17.23
2019-03-29T08:41:31.327Z,17.65
2019-03-29T08:44:02.460Z,18.85
2019-03-29T08:46:34.547Z,15.30
2019-03-29T08:49:06.668Z,15.93
2019-03-29T08:51:41.217Z,16.52
2019-03-29T08:54:11.702Z,27.37
2019-03-29T08:56:42.869Z,16.97
2019-03-29T08:59:17.228Z,18.37
2019-03-29T09:01:47.015Z,17.07
2019-03-29T09:04:21.495Z,17.77
2019-03-29T09:06:54.155Z,13.05
2019-03-29T09:09:26.533Z,18.50
2019-03-29T09:11:57.652Z,19.02
2019-03-29T09:14:31.383Z,12.65
2019-03-29T09:17:03.969Z,15.83
2019-03-29T09:19:36.422Z,12.88
2019-03-29T09:22:07.523Z,14.53
2019-03-29T09:24:40.103Z,13.00
2019-03-29T09:27:11.218Z,26.12
2019-03-29T09:29:42.387Z,14.13
2019-03-29T09:32:13.620Z,14.70
2019-03-29T09:34:45.766Z,12.75
2019-03-29T09:37:17.010Z,11.63
2019-03-29T09:39:48.497Z,13.20
2019-03-29T09:42:28.814Z,11.22
2019-03-29T09:44:52.565Z,12.50
2019-03-29T09:47:23.783Z,13.68
2019-03-29T09:49:58.060Z,12.35
2019-03-29T09:52:29.238Z,11.38
2019-03-29T09:55:00.427Z,11.70
2019-03-29T09:57:37.518Z,16.30
2019-03-29T10:00:19.286Z,11.60
2019-03-29T10:02:42.954Z,14.75
2019-03-29T10:05:14.112Z,11.20
2019-03-29T10:07:45.518Z,16.67
2019-03-29T10:10:20.176Z,10.85
2019-03-29T10:12:53.648Z,17.60
2019-03-29T10:15:25.180Z,13.93
2019-03-29T10:17:56.229Z,12.68
2019-03-29T10:20:27.249Z,11.85
2019-03-29T10:22:58.346Z,15.50
2019-03-29T10:25:29.439Z,12.13
2019-03-29T10:28:00.428Z,20.05
2019-03-29T10:30:36.681Z,15.35
2019-03-29T10:33:07.906Z,18.23
2019-03-29T10:35:50.963Z,17.90
2019-03-29T10:38:12.577Z,12.13
2019-03-29T10:40:44.629Z,13.75
2019-03-29T10:43:15.661Z,14.98
2019-03-29T10:45:46.743Z,13.72
2019-03-29T10:48:17.924Z,11.05
2019-03-29T10:50:49.303Z,14.35
2019-03-29T10:53:20.413Z,11.65
2019-03-29T10:55:51.599Z,9.33
2019-03-29T10:58:22.526Z,12.53
2019-03-29T11:00:53.529Z,14.73
2019-03-29T11:03:24.611Z,13.70
2019-03-29T11:05:55.823Z,11.83
2019-03-29T11:08:29.970Z,11.68
2019-03-29T11:11:08.589Z,12.82
2019-03-29T11:13:41.159Z,11.28
2019-03-29T11:16:12.930Z,10.25
2019-03-29T11:18:45.741Z,11.95
2019-03-29T11:21:16.779Z,16.00
2019-03-29T11:23:47.977Z,12.50
2019-03-29T11:26:19.973Z,10.48
2019-03-29T11:28:51.095Z,13.40
2019-03-29T11:31:25.353Z,10.68
2019-03-29T11:33:55.020Z,10.80
2019-03-29T11:36:26.098Z,14.13
2019-03-29T11:38:58.455Z,10.45
2019-03-29T11:41:30.018Z,9.85
2019-03-29T11:44:00.946Z,13.10
2019-03-29T11:46:32.027Z,9.63
2019-03-29T11:49:03.089Z,8.55
2019-03-29T11:51:36.751Z,10.82
2019-03-29T11:54:07.855Z,10.80
2019-03-29T11:56:39.024Z,9.35
2019-03-29T11:59:10.141Z,10.40
2019-03-29T12:01:41.413Z,9.23
2019-03-29T12:04:12.500Z,10.08
2019-03-29T12:06:43.689Z,6.80
2019-03-29T12:09:16.736Z,9.73
2019-03-29T12:11:47.578Z,10.10
2019-03-29T12:14:18.693Z,11.33
2019-03-29T12:16:49.960Z,10.38
2019-03-29T12:19:21.048Z,12.43
2019-03-29T12:21:53.492Z,9.18
2019-03-29T12:24:24.892Z,13.28
2019-03-29T12:26:58.266Z,15.13
2019-03-29T12:29:32.726Z,8.65
2019-03-29T12:32:04.180Z,14.35
2019-03-29T12:34:35.217Z,8.88
2019-03-29T12:37:06.268Z,9.90
2019-03-29T12:39:37.288Z,8.40
2019-03-29T12:42:09.908Z,13.38
2019-03-29T12:44:41.039Z,7.22
2019-03-29T12:47:12.068Z,8.45
2019-03-29T12:49:42.991Z,14.30
2019-03-29T12:52:14.130Z,7.37
2019-03-29T12:54:45.215Z,10.88
2019-03-29T12:57:16.443Z,12.93
2019-03-29T12:59:47.534Z,9.85
2019-03-29T13:02:18.738Z,8.43
2019-03-29T13:04:49.888Z,9.98
2019-03-29T13:07:20.924Z,11.12
2019-03-29T13:09:53.558Z,8.75
2019-03-29T13:12:24.824Z,9.95
2019-03-29T13:14:55.858Z,11.05
2019-03-29T13:17:28.581Z,9.98
2019-03-29T13:20:00.753Z,9.13
2019-03-29T13:22:34.846Z,8.25
2019-03-29T13:25:07.561Z,7.33
2019-03-29T13:27:39.951Z,8.70
2019-03-29T13:30:12.019Z,12.03
2019-03-29T13:32:43.151Z,7.85
2019-03-29T13:35:14.081Z,8.43
2019-03-29T13:37:44.968Z,6.47
2019-03-29T13:40:15.891Z,8.33
2019-03-29T13:42:46.942Z,9.88
2019-03-29T13:45:18.800Z,10.72
2019-03-29T13:47:49.836Z,10.13
2019-03-29T13:50:21.229Z,10.70
2019-03-29T13:52:52.273Z,12.98
2019-03-29T13:55:23.933Z,11.40
2019-03-29T13:57:55.259Z,12.20
2019-03-29T14:00:26.431Z,85.47
2019-03-29T14:02:57.737Z,12.58
2019-03-29T14:05:28.828Z,13.80
2019-03-29T14:07:59.893Z,11.63
2019-03-29T14:10:31.068Z,12.33
2019-03-29T14:13:02.286Z,15.05
2019-03-29T14:15:33.486Z,13.62
2019-03-29T14:18:04.653Z,13.20
2019-03-29T14:20:35.975Z,14.25
2019-03-29T14:23:09.087Z,10.15
2019-03-29T14:25:40.261Z,10.98
2019-03-29T14:28:11.310Z,10.78
2019-03-29T14:30:42.495Z,12.07
2019-03-29T14:33:14.601Z,11.88
2019-03-29T14:35:45.662Z,11.43
2019-03-29T14:38:16.794Z,12.03
2019-03-29T14:40:47.904Z,11.78
2019-03-29T14:43:19.218Z,11.73
2019-03-29T14:45:50.422Z,11.30
2019-03-29T14:48:21.797Z,12.03
2019-03-29T14:50:52.921Z,10.75
2019-03-29T14:53:24.186Z,12.85
2019-03-29T14:55:55.207Z,37.53
2019-03-29T14:58:26.441Z,16.60
2019-03-29T15:00:57.594Z,12.78
2019-03-29T15:03:29.695Z,14.78
2019-03-29T15:06:01.819Z,13.83
2019-03-29T15:08:33.192Z,11.22
2019-03-29T15:11:04.317Z,13.25
2019-03-29T15:13:35.504Z,17.10
2019-03-29T15:16:06.536Z,10.08
2019-03-29T15:18:40.303Z,10.80
2019-03-29T15:21:11.850Z,8.85
2019-03-29T15:23:42.812Z,15.68
2019-03-29T15:26:13.949Z,12.10
2019-03-29T15:28:45.105Z,20.37
2019-03-29T15:31:17.291Z,12.70
2019-03-29T15:33:49.429Z,14.78
2019-03-29T15:36:20.489Z,14.85
2019-03-29T15:38:51.597Z,24.60
2019-03-29T15:41:22.598Z,16.60
2019-03-29T15:43:53.630Z,14.65
2019-03-29T15:46:24.779Z,17.73
2019-03-29T15:48:55.796Z,17.30
2019-03-29T15:51:26.883Z,19.02
2019-03-29T15:53:57.922Z,21.42
2019-03-29T15:56:28.957Z,27.17
2019-03-29T15:58:59.967Z,26.17
2019-03-29T16:01:31.973Z,25.72
2019-03-29T16:04:03.995Z,21.90
2019-03-29T16:06:35.052Z,25.10
2019-03-29T16:09:06.446Z,22.58
2019-03-29T16:11:37.587Z,21.60
2019-03-29T16:14:08.589Z,21.35
2019-03-29T16:16:39.647Z,23.65
2019-03-29T16:19:10.642Z,22.30
2019-03-29T16:21:42.762Z,20.32
2019-03-29T16:24:14.947Z,19.67
2019-03-29T16:26:46.036Z,18.30
2019-03-29T16:29:17.196Z,18.98
2019-03-29T16:31:48.604Z,20.55
2019-03-29T16:34:19.772Z,19.48
2019-03-29T16:36:50.835Z,20.05
2019-03-29T16:39:21.878Z,25.77
2019-03-29T16:41:53.006Z,19.27
2019-03-29T16:44:24.382Z,22.58
2019-03-29T16:46:55.482Z,22.82
2019-03-29T16:49:28.253Z,20.40
2019-03-29T16:51:59.330Z,21.55
2019-03-29T16:54:36.857Z,23.40
2019-03-29T16:57:07.963Z,23.12
2019-03-29T16:59:39.064Z,21.30
2019-03-29T17:02:10.330Z,19.30
2019-03-29T17:04:42.494Z,125.10
2019-03-29T17:07:13.588Z,22.75
2019-03-29T17:09:44.589Z,21.02
2019-03-29T17:12:15.740Z,20.23
2019-03-29T17:14:48.802Z,23.85
2019-03-29T17:17:20.250Z,30.75
2019-03-29T17:19:51.483Z,22.32
2019-03-29T17:22:22.738Z,23.90
2019-03-29T17:24:57.207Z,21.20
2019-03-29T17:27:28.568Z,19.85
2019-03-29T17:30:00.041Z,22.55
2019-03-29T17:32:31.262Z,26.42
2019-03-29T17:35:02.457Z,20.17
2019-03-29T17:37:33.601Z,25.12
2019-03-29T17:40:06.868Z,26.30
2019-03-29T17:42:38.001Z,22.98
2019-03-29T17:45:15.661Z,26.77
2019-03-29T17:47:46.769Z,24.63
2019-03-29T17:50:17.954Z,29.10
2019-03-29T17:52:49.152Z,20.77
2019-03-29T17:55:20.158Z,28.87
2019-03-29T17:57:51.284Z,22.13
2019-03-29T18:00:27.438Z,20.02
2019-03-29T18:02:58.731Z,23.02
2019-03-29T18:05:29.822Z,87.60
2019-03-29T18:08:00.853Z,22.32
2019-03-29T18:10:31.890Z,23.05
2019-03-29T18:13:04.899Z,27.30
2019-03-29T18:15:35.972Z,24.07
2019-03-29T18:18:07.163Z,27.87
2019-03-29T18:20:38.347Z,23.80
2019-03-29T18:23:09.438Z,23.32
2019-03-29T18:25:41.539Z,23.27
2019-03-29T18:28:12.674Z,22.25
2019-03-29T18:30:43.790Z,24.37
2019-03-29T18:33:14.920Z,25.52
2019-03-29T18:35:47.050Z,30.57
2019-03-29T18:38:18.149Z,22.13
2019-03-29T18:40:49.405Z,27.98
2019-03-29T18:43:20.506Z,29.65
2019-03-29T18:45:51.729Z,32.30
2019-03-29T18:48:22.902Z,33.35
2019-03-29T18:50:53.933Z,26.07
2019-03-29T18:53:25.139Z,26.48
2019-03-29T18:55:56.233Z,22.82
2019-03-29T18:58:27.446Z,26.50
2019-03-29T19:00:58.475Z,28.27
2019-03-29T19:03:29.787Z,31.97
2019-03-29T19:06:01.837Z,35.33
2019-03-29T19:08:32.896Z,31.80
2019-03-29T19:11:04.039Z,41.15
2019-03-29T19:13:35.272Z,40.80
2019-03-29T19:16:06.340Z,37.75
2019-03-29T19:18:37.565Z,37.28
2019-03-29T19:21:08.753Z,41.68
2019-03-29T19:23:39.879Z,36.98
2019-03-29T19:26:10.917Z,39.90
2019-03-29T19:28:41.937Z,45.88
2019-03-29T19:31:12.944Z,50.17
2019-03-29T19:33:44.059Z,50.38
2019-03-29T19:36:15.418Z,47.75
2019-03-29T19:38:46.943Z,44.00
2019-03-29T19:41:17.968Z,47.13
2019-03-29T19:43:49.106Z,45.33
2019-03-29T19:46:20.209Z,51.28
2019-03-29T19:48:51.396Z,48.83
2019-03-29T19:51:22.710Z,51.23
2019-03-29T19:54:06.795Z,54.38
2019-03-29T19:56:31.026Z,59.70
2019-03-29T19:59:02.235Z,57.05
2019-03-29T20:01:33.328Z,62.98
2019-03-29T20:04:04.802Z,63.50
2019-03-29T20:06:37.101Z,60.45
2019-03-29T20:09:08.818Z,63.52
2019-03-29T20:11:40.347Z,63.50
2019-03-29T20:14:11.887Z,71.42
2019-03-29T20:16:43.035Z,67.03
2019-03-29T20:19:14.364Z,57.70
2019-03-29T20:21:45.518Z,64.00
2019-03-29T20:24:17.331Z,56.68
2019-03-29T20:26:48.446Z,52.98
2019-03-29T20:29:19.544Z,57.30
2019-03-29T20:31:50.884Z,58.98
2019-03-29T20:34:22.075Z,54.75
2019-03-29T20:36:53.128Z,56.68
2019-03-29T20:39:24.323Z,55.05
2019-03-29T20:41:55.479Z,53.05
2019-03-29T20:44:26.654Z,54.90
2019-03-29T20:46:57.805Z,57.85
2019-03-29T20:49:29.019Z,59.18
2019-03-29T20:52:00.329Z,59.83
2019-03-29T20:54:31.699Z,59.13
2019-03-29T20:57:02.758Z,55.48
2019-03-29T20:59:33.850Z,62.10
2019-03-29T21:02:04.966Z,60.40
2019-03-29T21:04:36.149Z,55.78
2019-03-29T21:07:07.236Z,54.00
2019-03-29T21:09:38.351Z,40.38
2019-03-29T21:12:09.472Z,37.58
2019-03-29T21:14:40.553Z,36.28
2019-03-29T21:17:11.882Z,34.53
2019-03-29T21:19:43.126Z,32.85
2019-03-29T21:22:14.216Z,29.00
2019-03-29T21:24:45.380Z,27.70
2019-03-29T21:27:16.576Z,33.58
2019-03-29T21:29:47.847Z,32.45
2019-03-29T21:32:18.965Z,30.52
2019-03-29T21:34:50.278Z,29.57
2019-03-29T21:37:21.562Z,23.73
2019-03-29T21:39:52.723Z,32.55
2019-03-29T21:42:23.851Z,29.42
2019-03-29T21:44:55.336Z,30.90
2019-03-29T21:47:26.358Z,28.32
2019-03-29T21:49:57.422Z,30.60
2019-03-29T21:52:28.699Z,29.30
2019-03-29T21:54:59.898Z,29.48
2019-03-29T21:57:30.935Z,25.25
2019-03-29T22:00:02.371Z,27.20
2019-03-29T22:02:33.942Z,27.13
2019-03-29T22:05:06.225Z,28.62
2019-03-29T22:07:38.448Z,29.52
2019-03-29T22:10:11.416Z,29.80
2019-03-29T22:12:43.422Z,32.98
2019-03-29T22:15:19.087Z,34.45
2019-03-29T22:17:50.403Z,32.78
2019-03-29T22:20:21.751Z,33.98
2019-03-29T22:22:53.015Z,35.20
2019-03-29T22:25:24.264Z,39.40
2019-03-29T22:27:55.573Z,37.20
2019-03-29T22:30:26.948Z,39.53
2019-03-29T22:32:58.139Z,38.88
2019-03-29T22:35:29.252Z,38.88
2019-03-29T22:38:01.930Z,41.18
2019-03-29T22:40:33.210Z,37.40
2019-03-29T22:43:07.304Z,43.25
2019-03-29T22:45:38.346Z,47.90
2019-03-29T22:48:10.489Z,44.80
2019-03-29T22:50:41.626Z,44.95
2019-03-29T22:53:12.845Z,46.60
2019-03-29T22:55:43.945Z,47.48
2019-03-29T22:58:16.028Z,43.65
2019-03-29T23:00:51.682Z,43.42
2019-03-29T23:03:22.955Z,45.98
2019-03-29T23:05:54.115Z,49.73
2019-03-29T23:08:25.170Z,51.05
2019-03-29T23:10:56.163Z,48.33
2019-03-29T23:13:28.874Z,55.83
2019-03-29T23:15:59.980Z,53.35
2019-03-29T23:18:33.632Z,56.30
2019-03-29T23:21:04.669Z,62.43
2019-03-29T23:23:35.819Z,49.83
2019-03-29T23:26:06.900Z,62.85
2019-03-29T23:28:38.384Z,61.55
2019-03-29T23:31:09.468Z,57.48
2019-03-29T23:33:40.773Z,58.90
2019-03-29T23:36:11.861Z,59.50
2019-03-29T23:38:49.156Z,61.70
2019-03-29T23:41:20.443Z,64.65
2019-03-29T23:43:51.562Z,63.15
2019-03-29T23:46:23.836Z,126.25
2019-03-29T23:48:55.163Z,70.08
